Archival Weather

Snohomish County (Paine Fld)

Everett, Washington (KPAE)

Report from: Thursday, October 26, 2023 12:53 AM PDT
Current time: Friday, June 14, 2024 5:07 AM PDT

Current weather – Weather history – Daily summaries
Weather forecast

Temperature3.3°C (37.9°F)
Dew point-1.1°C (30.0°F)
Winds Calm
Visibility10 mi. (16.1 km)
Clouds Sky clear
Altimeter30.08 in.Hg (1019 mB)
Relative humidity73 %
Density altitude-1,529 ft. (-466 m)
Sea-level pressure101.9 kPa (1019 mB, 30.09 in.Hg)
Max temp last 24 hours10.0°C (50.0°F)
Min temp last 24 hours2.2°C (36.0°F)
Remarks Fully automated report
Automated weather observing station with precipitation discriminator
Flight conditions Visual Meteorological Conditions
Raw dataKPAE 260753Z AUTO 00000KT 10SM CLR 03/M01 A3008 RMK AO2 SLP190 T00331011 401000022
An error has occurred. This application may no longer respond until reloaded. Reload 🗙